sensor_id;sensor_type;location;lat;lon;timestamp;pressure;altitude;pressure_sealevel;temperature;humidity
39275;BME280;24980;48.874;2.332;2023-04-21T00:02:07;100755.92;;;26.12;36.24
39275;BME280;24980;48.874;2.332;2023-04-21T00:04:37;100748.60;;;26.13;36.20
39275;BME280;24980;48.874;2.332;2023-04-21T00:07:08;100746.12;;;26.13;36.14
39275;BME280;24980;48.874;2.332;2023-04-21T00:09:38;100746.12;;;26.13;36.09
39275;BME280;24980;48.874;2.332;2023-04-21T00:12:08;100747.19;;;26.14;36.03
39275;BME280;24980;48.874;2.332;2023-04-21T00:14:38;100750.41;;;26.14;35.98
39275;BME280;24980;48.874;2.332;2023-04-21T00:17:08;100745.62;;;26.13;35.94
39275;BME280;24980;48.874;2.332;2023-04-21T00:19:38;100740.22;;;26.11;35.89
39275;BME280;24980;48.874;2.332;2023-04-21T00:22:08;100738.42;;;26.10;35.86
39275;BME280;24980;48.874;2.332;2023-04-21T00:24:38;100739.86;;;26.10;35.82
39275;BME280;24980;48.874;2.332;2023-04-21T00:27:08;100738.92;;;26.10;35.78
39275;BME280;24980;48.874;2.332;2023-04-21T00:29:38;100730.34;;;26.10;35.73
39275;BME280;24980;48.874;2.332;2023-04-21T00:32:08;100725.00;;;26.10;35.71
39275;BME280;24980;48.874;2.332;2023-04-21T00:34:38;100718.98;;;26.09;35.66
39275;BME280;24980;48.874;2.332;2023-04-21T00:37:09;100717.01;;;26.10;35.63
39275;BME280;24980;48.874;2.332;2023-04-21T00:39:39;100716.33;;;26.10;35.58
39275;BME280;24980;48.874;2.332;2023-04-21T00:42:10;100712.80;;;26.08;35.55
39275;BME280;24980;48.874;2.332;2023-04-21T00:44:39;100712.12;;;26.08;35.51
39275;BME280;24980;48.874;2.332;2023-04-21T00:47:09;100709.84;;;26.08;35.49
39275;BME280;24980;48.874;2.332;2023-04-21T00:49:39;100703.55;;;26.08;35.46
39275;BME280;24980;48.874;2.332;2023-04-21T00:52:09;100702.50;;;26.09;35.42
39275;BME280;24980;48.874;2.332;2023-04-21T00:54:40;100700.19;;;26.10;35.37
39275;BME280;24980;48.874;2.332;2023-04-21T00:57:11;100701.23;;;26.11;35.34
39275;BME280;24980;48.874;2.332;2023-04-21T00:59:41;100700.97;;;26.09;35.31
39275;BME280;24980;48.874;2.332;2023-04-21T01:02:12;100694.53;;;26.09;35.29
39275;BME280;24980;48.874;2.332;2023-04-21T01:04:42;100690.05;;;26.08;35.27
39275;BME280;24980;48.874;2.332;2023-04-21T01:07:12;100688.08;;;26.09;35.24
39275;BME280;24980;48.874;2.332;2023-04-21T01:09:42;100686.55;;;26.08;35.21
39275;BME280;24980;48.874;2.332;2023-04-21T01:12:12;100688.09;;;26.08;35.17
39275;BME280;24980;48.874;2.332;2023-04-21T01:14:48;100684.00;;;26.09;35.14
39275;BME280;24980;48.874;2.332;2023-04-21T01:17:13;100679.58;;;26.09;35.12
39275;BME280;24980;48.874;2.332;2023-04-21T01:19:43;100678.22;;;26.09;35.08
39275;BME280;24980;48.874;2.332;2023-04-21T01:22:14;100676.80;;;26.08;35.06
39275;BME280;24980;48.874;2.332;2023-04-21T01:24:46;100677.63;;;26.08;35.04
39275;BME280;24980;48.874;2.332;2023-04-21T01:27:16;100672.72;;;26.08;35.03
39275;BME280;24980;48.874;2.332;2023-04-21T01:29:46;100673.14;;;26.08;35.00
39275;BME280;24980;48.874;2.332;2023-04-21T01:32:17;100671.69;;;26.08;34.97
39275;BME280;24980;48.874;2.332;2023-04-21T01:34:51;100667.00;;;26.09;34.94
39275;BME280;24980;48.874;2.332;2023-04-21T01:37:19;100671.82;;;26.10;34.90
39275;BME280;24980;48.874;2.332;2023-04-21T01:39:50;100671.77;;;26.10;34.89
39275;BME280;24980;48.874;2.332;2023-04-21T01:42:19;100667.24;;;26.09;34.87
39275;BME280;24980;48.874;2.332;2023-04-21T01:44:49;100666.10;;;26.07;34.86
39275;BME280;24980;48.874;2.332;2023-04-21T01:47:18;100659.19;;;26.07;34.85
39275;BME280;24980;48.874;2.332;2023-04-21T01:49:49;100655.02;;;26.07;34.82
39275;BME280;24980;48.874;2.332;2023-04-21T01:52:19;100654.97;;;26.08;34.80
39275;BME280;24980;48.874;2.332;2023-04-21T01:54:49;100651.05;;;26.08;34.78
39275;BME280;24980;48.874;2.332;2023-04-21T01:57:20;100647.55;;;26.09;34.73
39275;BME280;24980;48.874;2.332;2023-04-21T01:59:50;100642.80;;;26.09;34.72
39275;BME280;24980;48.874;2.332;2023-04-21T02:02:20;100643.31;;;26.08;34.70
39275;BME280;24980;48.874;2.332;2023-04-21T02:04:54;100638.45;;;26.07;34.69
39275;BME280;24980;48.874;2.332;2023-04-21T02:07:21;100642.73;;;26.06;34.69
39275;BME280;24980;48.874;2.332;2023-04-21T02:09:51;100651.22;;;26.06;34.67
39275;BME280;24980;48.874;2.332;2023-04-21T02:12:26;100645.53;;;26.06;34.67
39275;BME280;24980;48.874;2.332;2023-04-21T02:14:52;100642.55;;;26.06;34.67
39275;BME280;24980;48.874;2.332;2023-04-21T02:17:21;100639.24;;;26.06;34.69
39275;BME280;24980;48.874;2.332;2023-04-21T02:19:54;100635.42;;;26.06;34.69
39275;BME280;24980;48.874;2.332;2023-04-21T02:22:23;100638.55;;;26.07;34.66
39275;BME280;24980;48.874;2.332;2023-04-21T02:24:53;100629.73;;;26.06;34.65
39275;BME280;24980;48.874;2.332;2023-04-21T02:27:23;100632.11;;;26.04;34.63
39275;BME280;24980;48.874;2.332;2023-04-21T02:29:53;100630.72;;;26.02;34.63
39275;BME280;24980;48.874;2.332;2023-04-21T02:32:23;100634.80;;;26.01;34.61
39275;BME280;24980;48.874;2.332;2023-04-21T02:34:53;100633.88;;;26.01;34.60
39275;BME280;24980;48.874;2.332;2023-04-21T02:37:30;100632.75;;;26.02;34.58
39275;BME280;24980;48.874;2.332;2023-04-21T02:40:06;100630.61;;;26.02;34.55
39275;BME280;24980;48.874;2.332;2023-04-21T02:42:24;100630.95;;;26.02;34.52
39275;BME280;24980;48.874;2.332;2023-04-21T02:44:54;100633.41;;;26.03;34.50
39275;BME280;24980;48.874;2.332;2023-04-21T02:47:24;100633.67;;;26.02;34.49
39275;BME280;24980;48.874;2.332;2023-04-21T02:49:54;100633.15;;;26.03;34.47
39275;BME280;24980;48.874;2.332;2023-04-21T02:52:25;100626.48;;;26.01;34.46
39275;BME280;24980;48.874;2.332;2023-04-21T02:54:55;100627.03;;;26.01;34.44
39275;BME280;24980;48.874;2.332;2023-04-21T02:57:24;100627.32;;;26.02;34.41
39275;BME280;24980;48.874;2.332;2023-04-21T02:59:55;100624.52;;;26.02;34.39
39275;BME280;24980;48.874;2.332;2023-04-21T03:02:25;100619.66;;;26.02;34.38
39275;BME280;24980;48.874;2.332;2023-04-21T03:04:55;100625.28;;;26.02;34.34
39275;BME280;24980;48.874;2.332;2023-04-21T03:07:25;100621.27;;;26.01;34.33
39275;BME280;24980;48.874;2.332;2023-04-21T03:09:55;100617.45;;;26.00;34.32
39275;BME280;24980;48.874;2.332;2023-04-21T03:12:25;100612.80;;;25.99;34.31
39275;BME280;24980;48.874;2.332;2023-04-21T03:14:55;100607.72;;;25.99;34.29
39275;BME280;24980;48.874;2.332;2023-04-21T03:17:25;100605.66;;;25.97;34.29
39275;BME280;24980;48.874;2.332;2023-04-21T03:19:55;100606.95;;;25.97;34.28
39275;BME280;24980;48.874;2.332;2023-04-21T03:22:25;100608.06;;;25.96;34.27
39275;BME280;24980;48.874;2.332;2023-04-21T03:24:55;100606.11;;;25.97;34.26
39275;BME280;24980;48.874;2.332;2023-04-21T03:27:25;100598.38;;;25.96;34.25
39275;BME280;24980;48.874;2.332;2023-04-21T03:29:55;100596.38;;;25.95;34.24
39275;BME280;24980;48.874;2.332;2023-04-21T03:32:25;100594.17;;;25.94;34.22
39275;BME280;24980;48.874;2.332;2023-04-21T03:34:58;100594.06;;;25.94;34.22
39275;BME280;24980;48.874;2.332;2023-04-21T03:37:25;100590.50;;;25.93;34.21
39275;BME280;24980;48.874;2.332;2023-04-21T03:39:56;100591.27;;;25.93;34.20
39275;BME280;24980;48.874;2.332;2023-04-21T03:42:31;100593.50;;;25.95;34.18
39275;BME280;24980;48.874;2.332;2023-04-21T03:45:00;100592.30;;;25.95;34.16
39275;BME280;24980;48.874;2.332;2023-04-21T03:47:27;100588.98;;;25.95;34.14
39275;BME280;24980;48.874;2.332;2023-04-21T03:49:57;100588.12;;;25.95;34.12
39275;BME280;24980;48.874;2.332;2023-04-21T03:52:27;100584.74;;;25.95;34.12
39275;BME280;24980;48.874;2.332;2023-04-21T03:54:57;100583.03;;;25.93;34.12
39275;BME280;24980;48.874;2.332;2023-04-21T03:57:27;100580.00;;;25.92;34.12
39275;BME280;24980;48.874;2.332;2023-04-21T03:59:57;100578.66;;;25.92;34.12
39275;BME280;24980;48.874;2.332;2023-04-21T04:02:28;100580.17;;;25.92;34.11
39275;BME280;24980;48.874;2.332;2023-04-21T04:04:57;100574.72;;;25.93;34.10
39275;BME280;24980;48.874;2.332;2023-04-21T04:07:27;100573.10;;;25.93;34.09
39275;BME280;24980;48.874;2.332;2023-04-21T04:09:58;100568.34;;;25.93;34.08
39275;BME280;24980;48.874;2.332;2023-04-21T04:12:28;100569.95;;;25.93;34.06
39275;BME280;24980;48.874;2.332;2023-04-21T04:15:03;100563.54;;;25.92;34.05
39275;BME280;24980;48.874;2.332;2023-04-21T04:20:04;100567.77;;;25.90;34.06
39275;BME280;24980;48.874;2.332;2023-04-21T04:22:30;100562.34;;;25.90;34.05
39275;BME280;24980;48.874;2.332;2023-04-21T04:25:00;100564.62;;;25.90;34.05
39275;BME280;24980;48.874;2.332;2023-04-21T04:27:30;100561.59;;;25.89;34.04
39275;BME280;24980;48.874;2.332;2023-04-21T04:30:01;100570.67;;;25.89;34.04
39275;BME280;24980;48.874;2.332;2023-04-21T04:32:34;100567.71;;;25.89;34.03
39275;BME280;24980;48.874;2.332;2023-04-21T04:35:02;100564.74;;;25.89;34.04
39275;BME280;24980;48.874;2.332;2023-04-21T04:37:32;100567.99;;;25.88;34.06
39275;BME280;24980;48.874;2.332;2023-04-21T04:40:02;100566.34;;;25.87;34.08
39275;BME280;24980;48.874;2.332;2023-04-21T04:42:33;100559.83;;;25.86;34.10
39275;BME280;24980;48.874;2.332;2023-04-21T04:45:04;100563.22;;;25.87;34.14
39275;BME280;24980;48.874;2.332;2023-04-21T04:47:34;100566.08;;;25.88;34.18
39275;BME280;24980;48.874;2.332;2023-04-21T04:50:05;100568.14;;;25.89;34.21
39275;BME280;24980;48.874;2.332;2023-04-21T04:52:35;100570.57;;;25.90;34.20
39275;BME280;24980;48.874;2.332;2023-04-21T04:55:07;100567.25;;;25.90;34.19
39275;BME280;24980;48.874;2.332;2023-04-21T04:57:36;100566.09;;;25.91;34.16
39275;BME280;24980;48.874;2.332;2023-04-21T05:00:07;100565.64;;;25.90;34.15
39275;BME280;24980;48.874;2.332;2023-04-21T05:02:37;100564.12;;;25.90;34.13
39275;BME280;24980;48.874;2.332;2023-04-21T05:05:08;100564.75;;;25.88;34.12
39275;BME280;24980;48.874;2.332;2023-04-21T05:07:37;100564.75;;;25.88;34.11
39275;BME280;24980;48.874;2.332;2023-04-21T05:10:07;100564.83;;;25.87;34.09
39275;BME280;24980;48.874;2.332;2023-04-21T05:12:38;100560.23;;;25.87;34.07
39275;BME280;24980;48.874;2.332;2023-04-21T05:15:08;100561.38;;;25.88;34.06
39275;BME280;24980;48.874;2.332;2023-04-21T05:17:39;100566.44;;;25.87;34.05
39275;BME280;24980;48.874;2.332;2023-04-21T05:20:09;100564.00;;;25.86;34.06
39275;BME280;24980;48.874;2.332;2023-04-21T05:22:45;100562.16;;;25.85;34.05
39275;BME280;24980;48.874;2.332;2023-04-21T05:25:13;100556.38;;;25.83;34.06
39275;BME280;24980;48.874;2.332;2023-04-21T05:27:41;100556.66;;;25.82;34.05
39275;BME280;24980;48.874;2.332;2023-04-21T05:30:11;100557.89;;;25.81;34.05
39275;BME280;24980;48.874;2.332;2023-04-21T05:32:41;100555.53;;;25.81;34.05
39275;BME280;24980;48.874;2.332;2023-04-21T05:35:12;100558.17;;;25.80;34.04
39275;BME280;24980;48.874;2.332;2023-04-21T05:37:41;100565.22;;;25.80;34.04
39275;BME280;24980;48.874;2.332;2023-04-21T05:40:12;100567.44;;;25.80;34.03
39275;BME280;24980;48.874;2.332;2023-04-21T05:42:42;100556.05;;;25.80;34.03
39275;BME280;24980;48.874;2.332;2023-04-21T05:45:16;100558.09;;;25.80;34.03
39275;BME280;24980;48.874;2.332;2023-04-21T05:47:43;100558.09;;;25.80;34.04
39275;BME280;24980;48.874;2.332;2023-04-21T05:50:13;100562.89;;;25.78;34.04
39275;BME280;24980;48.874;2.332;2023-04-21T05:52:43;100559.31;;;25.77;34.05
39275;BME280;24980;48.874;2.332;2023-04-21T05:55:13;100559.94;;;25.75;34.06
39275;BME280;24980;48.874;2.332;2023-04-21T05:57:43;100565.52;;;25.76;34.07
39275;BME280;24980;48.874;2.332;2023-04-21T06:00:14;100564.00;;;25.76;34.07
39275;BME280;24980;48.874;2.332;2023-04-21T06:02:49;100568.36;;;25.78;34.05
39275;BME280;24980;48.874;2.332;2023-04-21T06:05:15;100566.67;;;25.77;34.06
39275;BME280;24980;48.874;2.332;2023-04-21T06:07:45;100568.97;;;25.78;34.06
39275;BME280;24980;48.874;2.332;2023-04-21T06:10:17;100561.01;;;25.77;34.06
39275;BME280;24980;48.874;2.332;2023-04-21T06:12:46;100558.87;;;25.77;34.06
39275;BME280;24980;48.874;2.332;2023-04-21T06:15:16;100554.03;;;25.77;34.05
39275;BME280;24980;48.874;2.332;2023-04-21T06:17:47;100555.29;;;25.78;34.05
39275;BME280;24980;48.874;2.332;2023-04-21T06:20:17;100555.16;;;25.79;34.05
39275;BME280;24980;48.874;2.332;2023-04-21T06:22:47;100553.12;;;25.79;34.04
39275;BME280;24980;48.874;2.332;2023-04-21T06:25:17;100549.45;;;25.77;34.04
39275;BME280;24980;48.874;2.332;2023-04-21T06:27:59;100553.05;;;25.74;34.07
39275;BME280;24980;48.874;2.332;2023-04-21T06:30:18;100551.36;;;25.73;34.08
39275;BME280;24980;48.874;2.332;2023-04-21T06:32:48;100553.84;;;25.73;34.10
39275;BME280;24980;48.874;2.332;2023-04-21T06:35:18;100551.38;;;25.72;34.12
39275;BME280;24980;48.874;2.332;2023-04-21T06:37:48;100553.38;;;25.72;34.14
39275;BME280;24980;48.874;2.332;2023-04-21T06:40:18;100560.95;;;25.71;34.17
39275;BME280;24980;48.874;2.332;2023-04-21T06:42:48;100555.04;;;25.70;34.18
39275;BME280;24980;48.874;2.332;2023-04-21T06:45:18;100555.04;;;25.70;34.19
39275;BME280;24980;48.874;2.332;2023-04-21T06:47:48;100553.94;;;25.69;34.21
39275;BME280;24980;48.874;2.332;2023-04-21T06:50:18;100553.84;;;25.68;34.20
39275;BME280;24980;48.874;2.332;2023-04-21T06:52:48;100556.91;;;25.67;34.21
39275;BME280;24980;48.874;2.332;2023-04-21T06:55:19;100553.53;;;25.66;34.22
39275;BME280;24980;48.874;2.332;2023-04-21T06:57:49;100549.88;;;25.64;34.23
39275;BME280;24980;48.874;2.332;2023-04-21T07:02:50;100550.31;;;25.66;34.26
39275;BME280;24980;48.874;2.332;2023-04-21T07:05:20;100550.39;;;25.67;34.28
39275;BME280;24980;48.874;2.332;2023-04-21T07:07:51;100550.61;;;25.68;34.29
39275;BME280;24980;48.874;2.332;2023-04-21T07:10:20;100545.94;;;25.68;34.31
39275;BME280;24980;48.874;2.332;2023-04-21T07:12:50;100547.55;;;25.70;34.30
39275;BME280;24980;48.874;2.332;2023-04-21T07:15:20;100544.42;;;25.72;34.31
39275;BME280;24980;48.874;2.332;2023-04-21T07:17:50;100542.20;;;25.73;34.33
39275;BME280;24980;48.874;2.332;2023-04-21T07:20:21;100539.84;;;25.72;34.35
39275;BME280;24980;48.874;2.332;2023-04-21T07:22:50;100538.62;;;25.71;34.38
39275;BME280;24980;48.874;2.332;2023-04-21T07:25:22;100539.46;;;25.72;34.39
39275;BME280;24980;48.874;2.332;2023-04-21T07:27:51;100536.11;;;25.69;34.42
39275;BME280;24980;48.874;2.332;2023-04-21T07:30:21;100532.54;;;25.68;34.45
39275;BME280;24980;48.874;2.332;2023-04-21T07:32:51;100528.24;;;25.66;34.50
39275;BME280;24980;48.874;2.332;2023-04-21T07:35:24;100528.41;;;25.66;34.50
39275;BME280;24980;48.874;2.332;2023-04-21T07:37:55;100526.30;;;25.66;34.51
39275;BME280;24980;48.874;2.332;2023-04-21T07:40:22;100521.12;;;25.66;34.52
39275;BME280;24980;48.874;2.332;2023-04-21T07:42:52;100522.31;;;25.66;34.53
39275;BME280;24980;48.874;2.332;2023-04-21T07:45:23;100523.41;;;25.66;34.53
39275;BME280;24980;48.874;2.332;2023-04-21T07:47:53;100522.95;;;25.65;34.55
39275;BME280;24980;48.874;2.332;2023-04-21T07:50:23;100522.23;;;25.66;34.58
39275;BME280;24980;48.874;2.332;2023-04-21T07:52:53;100522.95;;;25.65;34.59
39275;BME280;24980;48.874;2.332;2023-04-21T07:55:24;100523.05;;;25.65;34.61
39275;BME280;24980;48.874;2.332;2023-04-21T07:57:54;100520.45;;;25.65;34.63
39275;BME280;24980;48.874;2.332;2023-04-21T08:00:24;100519.48;;;25.65;34.65
39275;BME280;24980;48.874;2.332;2023-04-21T08:02:55;100517.64;;;25.64;34.66
39275;BME280;24980;48.874;2.332;2023-04-21T08:05:33;100521.05;;;25.63;34.66
39275;BME280;24980;48.874;2.332;2023-04-21T08:07:59;100521.20;;;25.62;34.67
39275;BME280;24980;48.874;2.332;2023-04-21T08:10:31;100524.39;;;25.60;34.67
39275;BME280;24980;48.874;2.332;2023-04-21T08:12:56;100520.21;;;25.58;34.67
39275;BME280;24980;48.874;2.332;2023-04-21T08:15:26;100520.39;;;25.56;34.67
39275;BME280;24980;48.874;2.332;2023-04-21T08:17:56;100518.16;;;25.53;34.67
39275;BME280;24980;48.874;2.332;2023-04-21T08:20:26;100515.86;;;25.51;34.67
39275;BME280;24980;48.874;2.332;2023-04-21T08:22:56;100512.92;;;25.50;34.67
39275;BME280;24980;48.874;2.332;2023-04-21T08:25:27;100518.81;;;25.48;34.66
39275;BME280;24980;48.874;2.332;2023-04-21T08:27:57;100517.29;;;25.46;34.66
39275;BME280;24980;48.874;2.332;2023-04-21T08:30:27;100514.19;;;25.44;34.66
39275;BME280;24980;48.874;2.332;2023-04-21T08:33:00;100514.55;;;25.41;34.66
39275;BME280;24980;48.874;2.332;2023-04-21T08:35:28;100512.11;;;25.40;34.67
39275;BME280;24980;48.874;2.332;2023-04-21T08:37:58;100514.20;;;25.39;34.67
39275;BME280;24980;48.874;2.332;2023-04-21T08:43:03;100516.66;;;25.39;34.66
39275;BME280;24980;48.874;2.332;2023-04-21T08:45:31;100516.20;;;25.40;34.65
39275;BME280;24980;48.874;2.332;2023-04-21T08:48:01;100512.01;;;25.39;34.65
39275;BME280;24980;48.874;2.332;2023-04-21T08:50:31;100513.86;;;25.39;34.63
39275;BME280;24980;48.874;2.332;2023-04-21T08:53:01;100513.86;;;25.39;34.62
39275;BME280;24980;48.874;2.332;2023-04-21T08:55:32;100518.36;;;25.39;34.62
39275;BME280;24980;48.874;2.332;2023-04-21T08:58:05;100513.04;;;25.38;34.61
39275;BME280;24980;48.874;2.332;2023-04-21T09:00:33;100515.11;;;25.37;34.56
39275;BME280;24980;48.874;2.332;2023-04-21T09:03:03;100511.62;;;25.35;34.54
39275;BME280;24980;48.874;2.332;2023-04-21T09:05:34;100515.52;;;25.33;34.50
39275;BME280;24980;48.874;2.332;2023-04-21T09:08:09;100514.86;;;25.32;34.49
39275;BME280;24980;48.874;2.332;2023-04-21T09:10:50;100516.00;;;25.30;34.47
39275;BME280;24980;48.874;2.332;2023-04-21T09:13:08;100513.68;;;25.29;34.43
39275;BME280;24980;48.874;2.332;2023-04-21T09:15:42;100510.61;;;25.30;34.40
39275;BME280;24980;48.874;2.332;2023-04-21T09:18:09;100511.81;;;25.29;34.38
39275;BME280;24980;48.874;2.332;2023-04-21T09:20:36;100510.80;;;25.29;34.37
39275;BME280;24980;48.874;2.332;2023-04-21T09:23:06;100514.34;;;25.30;34.36
39275;BME280;24980;48.874;2.332;2023-04-21T09:25:41;100516.73;;;25.29;34.35
39275;BME280;24980;48.874;2.332;2023-04-21T09:28:10;100517.02;;;25.28;34.37
39275;BME280;24980;48.874;2.332;2023-04-21T09:30:37;100518.97;;;25.28;34.38
39275;BME280;24980;48.874;2.332;2023-04-21T09:33:09;100518.36;;;25.26;34.38
39275;BME280;24980;48.874;2.332;2023-04-21T09:35:37;100518.75;;;25.24;34.36
39275;BME280;24980;48.874;2.332;2023-04-21T09:38:11;100515.23;;;25.23;34.35
39275;BME280;24980;48.874;2.332;2023-04-21T09:40:39;100513.47;;;25.22;34.35
39275;BME280;24980;48.874;2.332;2023-04-21T09:43:09;100510.62;;;25.21;34.35
39275;BME280;24980;48.874;2.332;2023-04-21T09:45:39;100504.61;;;25.21;34.35
39275;BME280;24980;48.874;2.332;2023-04-21T09:48:13;100505.75;;;25.20;34.36
39275;BME280;24980;48.874;2.332;2023-04-21T09:50:41;100500.52;;;25.21;34.36
39275;BME280;24980;48.874;2.332;2023-04-21T09:53:15;100499.33;;;25.22;34.36
39275;BME280;24980;48.874;2.332;2023-04-21T09:55:44;100503.23;;;25.21;34.35
39275;BME280;24980;48.874;2.332;2023-04-21T09:58:15;100499.98;;;25.20;34.33
39275;BME280;24980;48.874;2.332;2023-04-21T10:00:43;100502.69;;;25.20;34.31
39275;BME280;24980;48.874;2.332;2023-04-21T10:03:13;100505.44;;;25.19;34.29
39275;BME280;24980;48.874;2.332;2023-04-21T10:05:44;100498.76;;;25.18;34.28
39275;BME280;24980;48.874;2.332;2023-04-21T10:08:14;100495.76;;;25.17;34.28
39275;BME280;24980;48.874;2.332;2023-04-21T10:10:45;100495.27;;;25.16;34.29
39275;BME280;24980;48.874;2.332;2023-04-21T10:13:15;100497.22;;;25.16;34.28
39275;BME280;24980;48.874;2.332;2023-04-21T10:15:45;100497.90;;;25.16;34.28
39275;BME280;24980;48.874;2.332;2023-04-21T10:18:20;100492.66;;;25.15;34.25
39275;BME280;24980;48.874;2.332;2023-04-21T10:20:56;100488.35;;;25.14;34.24
39275;BME280;24980;48.874;2.332;2023-04-21T10:23:38;100483.77;;;25.14;34.22
39275;BME280;24980;48.874;2.332;2023-04-21T10:25:48;100487.41;;;25.15;34.20
39275;BME280;24980;48.874;2.332;2023-04-21T10:28:17;100481.48;;;25.14;34.19
39275;BME280;24980;48.874;2.332;2023-04-21T10:30:48;100485.12;;;25.15;34.17
39275;BME280;24980;48.874;2.332;2023-04-21T10:33:18;100479.52;;;25.15;34.16
39275;BME280;24980;48.874;2.332;2023-04-21T10:35:58;100486.30;;;25.15;34.15
39275;BME280;24980;48.874;2.332;2023-04-21T10:38:35;100480.55;;;25.14;34.14
39275;BME280;24980;48.874;2.332;2023-04-21T10:40:55;100480.88;;;25.13;34.11
39275;BME280;24980;48.874;2.332;2023-04-21T10:43:45;100474.96;;;25.09;34.08
39275;BME280;24980;48.874;2.332;2023-04-21T10:45:50;100480.52;;;25.08;34.07
39275;BME280;24980;48.874;2.332;2023-04-21T10:48:21;100476.59;;;25.06;34.07
39275;BME280;24980;48.874;2.332;2023-04-21T10:50:52;100475.09;;;25.05;34.05
39275;BME280;24980;48.874;2.332;2023-04-21T10:53:24;100472.70;;;25.03;34.04
39275;BME280;24980;48.874;2.332;2023-04-21T10:55:53;100468.08;;;25.01;34.04
39275;BME280;24980;48.874;2.332;2023-04-21T10:58:22;100463.39;;;25.00;34.02
39275;BME280;24980;48.874;2.332;2023-04-21T11:00:53;100463.23;;;25.00;33.99
39275;BME280;24980;48.874;2.332;2023-04-21T11:03:23;100457.75;;;24.99;33.97
39275;BME280;24980;48.874;2.332;2023-04-21T11:05:53;100458.90;;;24.98;33.96
39275;BME280;24980;48.874;2.332;2023-04-21T11:08:23;100453.50;;;24.96;33.96
39275;BME280;24980;48.874;2.332;2023-04-21T11:10:56;100448.53;;;24.95;33.94
39275;BME280;24980;48.874;2.332;2023-04-21T11:13:26;100443.83;;;24.95;33.93
39275;BME280;24980;48.874;2.332;2023-04-21T11:15:56;100442.34;;;24.95;33.91
39275;BME280;24980;48.874;2.332;2023-04-21T11:18:42;100444.70;;;24.94;33.91
39275;BME280;24980;48.874;2.332;2023-04-21T11:21:11;100443.75;;;24.92;33.91
39275;BME280;24980;48.874;2.332;2023-04-21T11:23:26;100441.43;;;24.92;33.90
39275;BME280;24980;48.874;2.332;2023-04-21T11:25:58;100442.11;;;24.89;33.88
39275;BME280;24980;48.874;2.332;2023-04-21T11:28:27;100439.83;;;24.89;33.88
39275;BME280;24980;48.874;2.332;2023-04-21T11:30:57;100439.81;;;24.87;33.89
39275;BME280;24980;48.874;2.332;2023-04-21T11:33:29;100441.44;;;24.87;33.88
39275;BME280;24980;48.874;2.332;2023-04-21T11:35:58;100437.39;;;24.86;33.87
39275;BME280;24980;48.874;2.332;2023-04-21T11:38:36;100437.27;;;24.85;33.87
39275;BME280;24980;48.874;2.332;2023-04-21T11:40:58;100437.10;;;24.85;33.86
39275;BME280;24980;48.874;2.332;2023-04-21T11:43:28;100441.61;;;24.84;33.87
39275;BME280;24980;48.874;2.332;2023-04-21T11:46:27;100439.09;;;24.83;33.87
39275;BME280;24980;48.874;2.332;2023-04-21T11:48:28;100439.78;;;24.82;33.86
39275;BME280;24980;48.874;2.332;2023-04-21T11:50:59;100443.86;;;24.82;33.82
39275;BME280;24980;48.874;2.332;2023-04-21T11:53:29;100442.44;;;24.81;33.80
39275;BME280;24980;48.874;2.332;2023-04-21T11:55:59;100441.25;;;24.81;33.78
39275;BME280;24980;48.874;2.332;2023-04-21T11:58:30;100439.83;;;24.80;33.76
39275;BME280;24980;48.874;2.332;2023-04-21T12:01:08;100439.16;;;24.80;33.74
39275;BME280;24980;48.874;2.332;2023-04-21T12:03:31;100438.33;;;24.79;33.75
39275;BME280;24980;48.874;2.332;2023-04-21T12:06:02;100440.54;;;24.79;33.74
39275;BME280;24980;48.874;2.332;2023-04-21T12:08:32;100444.75;;;24.78;33.75
39275;BME280;24980;48.874;2.332;2023-04-21T12:11:08;100445.50;;;24.78;33.75
39275;BME280;24980;48.874;2.332;2023-04-21T12:13:33;100442.88;;;24.78;33.76
39275;BME280;24980;48.874;2.332;2023-04-21T12:16:03;100444.41;;;24.78;33.78
39275;BME280;24980;48.874;2.332;2023-04-21T12:18:34;100442.97;;;24.77;33.76
39275;BME280;24980;48.874;2.332;2023-04-21T12:21:04;100443.31;;;24.77;33.75
39275;BME280;24980;48.874;2.332;2023-04-21T12:23:34;100438.52;;;24.76;33.75
39275;BME280;24980;48.874;2.332;2023-04-21T12:26:07;100438.84;;;24.76;33.74
39275;BME280;24980;48.874;2.332;2023-04-21T12:28:34;100439.32;;;24.75;33.73
39275;BME280;24980;48.874;2.332;2023-04-21T12:31:05;100440.09;;;24.75;33.71
39275;BME280;24980;48.874;2.332;2023-04-21T12:33:35;100444.42;;;24.75;33.71
39275;BME280;24980;48.874;2.332;2023-04-21T12:36:06;100439.45;;;24.74;33.71
39275;BME280;24980;48.874;2.332;2023-04-21T12:38:36;100440.02;;;24.72;33.72
39275;BME280;24980;48.874;2.332;2023-04-21T12:41:07;100438.54;;;24.72;33.71
39275;BME280;24980;48.874;2.332;2023-04-21T12:43:37;100437.50;;;24.71;33.71
39275;BME280;24980;48.874;2.332;2023-04-21T12:46:07;100438.12;;;24.70;33.71
39275;BME280;24980;48.874;2.332;2023-04-21T12:48:39;100440.45;;;24.69;33.72
39275;BME280;24980;48.874;2.332;2023-04-21T12:51:08;100439.03;;;24.68;33.71
39275;BME280;24980;48.874;2.332;2023-04-21T12:53:38;100439.20;;;24.68;33.71
39275;BME280;24980;48.874;2.332;2023-04-21T12:56:08;100434.63;;;24.68;33.70
39275;BME280;24980;48.874;2.332;2023-04-21T12:58:39;100438.45;;;24.68;33.71
39275;BME280;24980;48.874;2.332;2023-04-21T13:01:09;100435.74;;;24.68;33.72
39275;BME280;24980;48.874;2.332;2023-04-21T13:03:39;100434.63;;;24.68;33.72
39275;BME280;24980;48.874;2.332;2023-04-21T13:06:09;100431.16;;;24.68;33.72
39275;BME280;24980;48.874;2.332;2023-04-21T13:08:39;100428.78;;;24.68;33.71
39275;BME280;24980;48.874;2.332;2023-04-21T13:11:10;100429.45;;;24.69;33.70
39275;BME280;24980;48.874;2.332;2023-04-21T13:13:40;100433.36;;;24.68;33.70